Bartelso, Illinois
Current Conditions -  °F | °C
As of 4:15 AM on Thursday 18 Dec 2014 (Local Time) from KENL Reporting Station
Overcast Overcast  
Wind Chill: 23°   Ceiling: 8000
Heat Index: 28°   Visibility: 7mi
Dew Point: 24°   Wind: 5mph
Humidity: 84%   Direction: 70°ENE
Pressure: 30.27"   Gusts: NA
Location:  38.54°N, 89.47°W
Report Text: KENL 181015Z AUTO 07004KT 7SM SCT012 OVC080 M02/M04 A3027 RMK AO2 T10201044
Loading
Personal Weather Stations






























Interactive Weather Map New forecast layout! Learn more

10-Day Weather Forecast

Advertisements
Track Severe Weather on mobile